Veuillez saisir l'adresse e-mail associée à votre compte d'utilisateur. Un code de vérification vous sera adressé. Lorsque vous le recevrez, vous pourrez choisir un nouveau mot de passe

METAR TAF

[Source: ADDS]
METAR
LFCR 150400Z AUTO 17003KT 9999 FEW013 SCT026 OVC035 02/01 Q0998 TEMPO 3000 BR BKN003 =
LFCR 142300Z 1500/1524 22005KT 9999 BKN010 PROB30 TEMPO 1500/1502 4000 -RASN BKN004 PROB30 TEMPO 1502/1508 3000 BR BKN003 BECMG 1505/1507 15005KT BECMG 1508/1510 SCT012 TEMPO 1510/1513 BKN016 BECMG 1513/1515 VRB02KT SCT025 PROB30 TEMPO 1517/1520 BKN030 LFBA 150400Z AUTO 10005KT 4600 BR VV/// 01/00 Q0998 =
LFBA 141700Z 1418/1503 24007KT 9999 BKN025 PROB30 TEMPO 1420/1424 3000 -RA BKN015 LFSL 150400Z AUTO 17005KT 9000 -DZ BKN004/// OVC009/// ///TCU 04/04 Q0997 TEMPO 3000 BR BKN002 =
AMD LFSL 150342Z 1503/1512 VRB02KT 9999 BKN012 TEMPO 1503/1509 BKN004 PROB40 TEMPO 1505/1508 3000 BR BKN002 BECMG 1511/1512 BKN020 LFLW 150400Z AUTO VRB02KT 9999 ////// 01/01 Q0997 =
TAF
LFCR 142300Z 1500/1524 22005KT 9999 BKN010 PROB30 TEMPO 1500/1502 4000 -RASN BKN004 PROB30 TEMPO 1502/1508 3000 BR BKN003 BECMG 1505/1507 15005KT BECMG 1508/1510 SCT012 TEMPO 1510/1513 BKN016 BECMG 1513/1515 VRB02KT SCT025 PROB30 TEMPO 1517/1520 BKN030 =
LFBA 141700Z 1418/1503 24007KT 9999 BKN025 PROB30 TEMPO 1420/1424 3000 -RA BKN015 =
AMD LFSL 150342Z 1503/1512 VRB02KT 9999 BKN012 TEMPO 1503/1509 BKN004 PROB40 TEMPO 1505/1508 3000 BR BKN002 BECMG 1511/1512 BKN020 =
SR / SS: 06:49 / 16:27 UTC (LFCC 2019-11-15)